sensor_id;sensor_type;location;lat;lon;timestamp;temperature;humidity
15133;DHT22;7667;51.232;17.110;2024-02-26T00:00:37;1.70;99.90
15133;DHT22;7667;51.232;17.110;2024-02-26T00:03:05;1.80;99.90
15133;DHT22;7667;51.232;17.110;2024-02-26T00:05:32;2.00;99.90
15133;DHT22;7667;51.232;17.110;2024-02-26T00:08:00;2.20;99.90
15133;DHT22;7667;51.232;17.110;2024-02-26T00:10:31;2.10;99.90
15133;DHT22;7667;51.232;17.110;2024-02-26T00:12:59;2.00;99.90
15133;DHT22;7667;51.232;17.110;2024-02-26T00:15:27;2.00;99.90
15133;DHT22;7667;51.232;17.110;2024-02-26T00:17:55;2.10;99.90
15133;DHT22;7667;51.232;17.110;2024-02-26T00:20:23;2.10;99.90
15133;DHT22;7667;51.232;17.110;2024-02-26T00:22:50;2.10;99.90
15133;DHT22;7667;51.232;17.110;2024-02-26T00:25:18;2.10;99.90
15133;DHT22;7667;51.232;17.110;2024-02-26T00:27:45;2.10;99.90
15133;DHT22;7667;51.232;17.110;2024-02-26T00:30:13;2.20;99.90
15133;DHT22;7667;51.232;17.110;2024-02-26T00:32:41;2.20;99.90
15133;DHT22;7667;51.232;17.110;2024-02-26T00:35:09;2.30;99.90
15133;DHT22;7667;51.232;17.110;2024-02-26T00:37:36;2.40;99.90
15133;DHT22;7667;51.232;17.110;2024-02-26T00:40:05;2.50;99.90
15133;DHT22;7667;51.232;17.110;2024-02-26T00:42:34;2.40;99.90
15133;DHT22;7667;51.232;17.110;2024-02-26T00:45:01;2.50;99.90
15133;DHT22;7667;51.232;17.110;2024-02-26T00:47:29;2.50;99.90
15133;DHT22;7667;51.232;17.110;2024-02-26T00:49:57;2.60;99.90
15133;DHT22;7667;51.232;17.110;2024-02-26T00:52:24;2.60;99.90
15133;DHT22;7667;51.232;17.110;2024-02-26T00:54:52;2.70;99.90
15133;DHT22;7667;51.232;17.110;2024-02-26T00:57:20;2.70;99.90
15133;DHT22;7667;51.232;17.110;2024-02-26T00:59:48;2.70;99.90
15133;DHT22;7667;51.232;17.110;2024-02-26T01:02:15;2.70;99.90
15133;DHT22;7667;51.232;17.110;2024-02-26T01:04:43;2.50;99.90
15133;DHT22;7667;51.232;17.110;2024-02-26T01:07:11;2.10;99.90
15133;DHT22;7667;51.232;17.110;2024-02-26T01:09:39;1.80;99.90
15133;DHT22;7667;51.232;17.110;2024-02-26T01:12:06;1.70;99.90
15133;DHT22;7667;51.232;17.110;2024-02-26T01:14:34;1.90;99.90
15133;DHT22;7667;51.232;17.110;2024-02-26T01:17:02;2.10;99.90
15133;DHT22;7667;51.232;17.110;2024-02-26T01:19:30;2.20;99.90
15133;DHT22;7667;51.232;17.110;2024-02-26T01:21:57;2.20;99.90
15133;DHT22;7667;51.232;17.110;2024-02-26T01:24:25;2.20;99.90
15133;DHT22;7667;51.232;17.110;2024-02-26T01:26:53;2.10;99.90
15133;DHT22;7667;51.232;17.110;2024-02-26T01:29:20;2.00;99.90
15133;DHT22;7667;51.232;17.110;2024-02-26T01:31:48;1.90;99.90
15133;DHT22;7667;51.232;17.110;2024-02-26T01:34:15;1.90;99.90
15133;DHT22;7667;51.232;17.110;2024-02-26T01:36:45;1.90;99.90
15133;DHT22;7667;51.232;17.110;2024-02-26T01:39:13;2.00;99.90
15133;DHT22;7667;51.232;17.110;2024-02-26T01:41:41;2.00;99.90
15133;DHT22;7667;51.232;17.110;2024-02-26T01:44:12;2.00;99.90
15133;DHT22;7667;51.232;17.110;2024-02-26T01:46:40;2.00;99.90
15133;DHT22;7667;51.232;17.110;2024-02-26T01:49:11;2.10;99.90
15133;DHT22;7667;51.232;17.110;2024-02-26T01:51:41;2.10;99.90
15133;DHT22;7667;51.232;17.110;2024-02-26T01:54:11;2.20;99.90
15133;DHT22;7667;51.232;17.110;2024-02-26T01:56:39;2.30;99.90
15133;DHT22;7667;51.232;17.110;2024-02-26T01:59:08;2.30;99.90
15133;DHT22;7667;51.232;17.110;2024-02-26T02:01:36;2.20;99.90
15133;DHT22;7667;51.232;17.110;2024-02-26T02:04:05;2.10;99.90
15133;DHT22;7667;51.232;17.110;2024-02-26T02:06:32;2.30;99.90
15133;DHT22;7667;51.232;17.110;2024-02-26T02:09:01;2.20;99.90
15133;DHT22;7667;51.232;17.110;2024-02-26T02:11:34;2.30;99.90
15133;DHT22;7667;51.232;17.110;2024-02-26T02:14:02;2.40;99.90
15133;DHT22;7667;51.232;17.110;2024-02-26T02:16:30;2.40;99.90
15133;DHT22;7667;51.232;17.110;2024-02-26T02:18:58;2.40;99.90
15133;DHT22;7667;51.232;17.110;2024-02-26T02:21:26;2.40;99.90
15133;DHT22;7667;51.232;17.110;2024-02-26T02:23:54;2.30;99.90
15133;DHT22;7667;51.232;17.110;2024-02-26T02:26:21;2.20;99.90
15133;DHT22;7667;51.232;17.110;2024-02-26T02:28:49;2.10;99.90
15133;DHT22;7667;51.232;17.110;2024-02-26T02:31:17;2.10;99.90
15133;DHT22;7667;51.232;17.110;2024-02-26T02:33:45;2.10;99.90
15133;DHT22;7667;51.232;17.110;2024-02-26T02:36:13;2.10;99.90
15133;DHT22;7667;51.232;17.110;2024-02-26T02:38:49;2.20;99.90
15133;DHT22;7667;51.232;17.110;2024-02-26T02:41:18;2.30;99.90
15133;DHT22;7667;51.232;17.110;2024-02-26T02:43:46;2.30;99.90
15133;DHT22;7667;51.232;17.110;2024-02-26T02:46:13;2.40;99.90
15133;DHT22;7667;51.232;17.110;2024-02-26T02:48:41;2.50;99.90
15133;DHT22;7667;51.232;17.110;2024-02-26T02:51:10;2.60;99.90
15133;DHT22;7667;51.232;17.110;2024-02-26T02:53:38;2.80;99.90
15133;DHT22;7667;51.232;17.110;2024-02-26T02:56:06;2.80;99.90
15133;DHT22;7667;51.232;17.110;2024-02-26T02:58:34;2.90;99.90
15133;DHT22;7667;51.232;17.110;2024-02-26T03:01:01;2.90;99.90
15133;DHT22;7667;51.232;17.110;2024-02-26T03:03:29;2.80;99.90
15133;DHT22;7667;51.232;17.110;2024-02-26T03:05:57;2.90;99.90
15133;DHT22;7667;51.232;17.110;2024-02-26T03:08:24;2.80;99.90
15133;DHT22;7667;51.232;17.110;2024-02-26T03:10:53;2.90;99.90
15133;DHT22;7667;51.232;17.110;2024-02-26T03:13:21;2.80;99.90
15133;DHT22;7667;51.232;17.110;2024-02-26T03:15:48;2.90;99.90
15133;DHT22;7667;51.232;17.110;2024-02-26T03:18:16;2.90;99.90
15133;DHT22;7667;51.232;17.110;2024-02-26T03:20:44;2.90;99.90
15133;DHT22;7667;51.232;17.110;2024-02-26T03:23:11;2.80;99.90
15133;DHT22;7667;51.232;17.110;2024-02-26T03:25:44;2.60;99.90
15133;DHT22;7667;51.232;17.110;2024-02-26T03:28:13;2.80;99.90
15133;DHT22;7667;51.232;17.110;2024-02-26T03:30:41;2.80;99.90
15133;DHT22;7667;51.232;17.110;2024-02-26T03:33:08;2.90;99.90
15133;DHT22;7667;51.232;17.110;2024-02-26T03:35:36;2.80;99.90
15133;DHT22;7667;51.232;17.110;2024-02-26T03:38:04;2.80;99.90
15133;DHT22;7667;51.232;17.110;2024-02-26T03:40:31;2.70;99.90
15133;DHT22;7667;51.232;17.110;2024-02-26T03:42:59;2.80;99.90
15133;DHT22;7667;51.232;17.110;2024-02-26T03:45:27;2.70;99.90
15133;DHT22;7667;51.232;17.110;2024-02-26T03:47:55;2.70;99.90
15133;DHT22;7667;51.232;17.110;2024-02-26T03:50:23;2.80;99.90
15133;DHT22;7667;51.232;17.110;2024-02-26T03:52:51;2.70;99.90
15133;DHT22;7667;51.232;17.110;2024-02-26T03:55:18;2.70;99.90
15133;DHT22;7667;51.232;17.110;2024-02-26T03:57:52;2.60;99.90
15133;DHT22;7667;51.232;17.110;2024-02-26T04:00:20;2.60;99.90
15133;DHT22;7667;51.232;17.110;2024-02-26T04:02:49;2.60;99.90
15133;DHT22;7667;51.232;17.110;2024-02-26T04:05:17;2.60;99.90
15133;DHT22;7667;51.232;17.110;2024-02-26T04:07:45;2.50;99.90
15133;DHT22;7667;51.232;17.110;2024-02-26T04:10:12;2.40;99.90
15133;DHT22;7667;51.232;17.110;2024-02-26T04:12:41;2.40;99.90
15133;DHT22;7667;51.232;17.110;2024-02-26T04:15:10;2.40;99.90
15133;DHT22;7667;51.232;17.110;2024-02-26T04:17:38;2.40;99.90
15133;DHT22;7667;51.232;17.110;2024-02-26T04:20:06;2.30;99.90
15133;DHT22;7667;51.232;17.110;2024-02-26T04:22:34;2.20;99.90
15133;DHT22;7667;51.232;17.110;2024-02-26T04:25:02;2.20;99.90
15133;DHT22;7667;51.232;17.110;2024-02-26T04:27:30;2.20;99.90
15133;DHT22;7667;51.232;17.110;2024-02-26T04:29:57;2.20;99.90
15133;DHT22;7667;51.232;17.110;2024-02-26T04:32:25;2.20;99.90
15133;DHT22;7667;51.232;17.110;2024-02-26T04:34:53;2.20;99.90
15133;DHT22;7667;51.232;17.110;2024-02-26T04:37:20;2.20;99.90
15133;DHT22;7667;51.232;17.110;2024-02-26T04:39:48;2.20;99.90
15133;DHT22;7667;51.232;17.110;2024-02-26T04:42:17;2.20;99.90
15133;DHT22;7667;51.232;17.110;2024-02-26T04:44:45;2.10;99.90
15133;DHT22;7667;51.232;17.110;2024-02-26T04:47:12;2.10;99.90
15133;DHT22;7667;51.232;17.110;2024-02-26T04:49:41;2.10;99.90
15133;DHT22;7667;51.232;17.110;2024-02-26T04:52:08;2.20;99.90
15133;DHT22;7667;51.232;17.110;2024-02-26T04:54:36;2.30;99.90
15133;DHT22;7667;51.232;17.110;2024-02-26T04:57:04;2.30;99.90
15133;DHT22;7667;51.232;17.110;2024-02-26T04:59:32;2.40;99.90
15133;DHT22;7667;51.232;17.110;2024-02-26T05:01:59;2.50;99.90
15133;DHT22;7667;51.232;17.110;2024-02-26T05:04:27;2.60;99.90
15133;DHT22;7667;51.232;17.110;2024-02-26T05:06:55;2.70;99.90
15133;DHT22;7667;51.232;17.110;2024-02-26T05:09:23;2.60;99.90
15133;DHT22;7667;51.232;17.110;2024-02-26T05:11:51;2.60;99.90
15133;DHT22;7667;51.232;17.110;2024-02-26T05:14:19;2.50;99.90
15133;DHT22;7667;51.232;17.110;2024-02-26T05:16:47;2.50;99.90
15133;DHT22;7667;51.232;17.110;2024-02-26T05:19:15;2.60;99.90
15133;DHT22;7667;51.232;17.110;2024-02-26T05:21:43;2.40;99.90
15133;DHT22;7667;51.232;17.110;2024-02-26T05:24:11;2.40;99.90
15133;DHT22;7667;51.232;17.110;2024-02-26T05:26:39;2.50;99.90
15133;DHT22;7667;51.232;17.110;2024-02-26T05:29:06;2.40;99.90
15133;DHT22;7667;51.232;17.110;2024-02-26T05:31:34;2.40;99.90
15133;DHT22;7667;51.232;17.110;2024-02-26T05:34:01;2.50;99.90
15133;DHT22;7667;51.232;17.110;2024-02-26T05:36:29;2.60;99.90
15133;DHT22;7667;51.232;17.110;2024-02-26T05:39:01;2.70;99.90
15133;DHT22;7667;51.232;17.110;2024-02-26T05:41:29;2.70;99.90
15133;DHT22;7667;51.232;17.110;2024-02-26T05:43:56;2.60;99.90
15133;DHT22;7667;51.232;17.110;2024-02-26T05:46:24;2.70;99.90
15133;DHT22;7667;51.232;17.110;2024-02-26T05:48:52;2.80;99.90
15133;DHT22;7667;51.232;17.110;2024-02-26T05:51:20;2.80;99.90
15133;DHT22;7667;51.232;17.110;2024-02-26T05:53:49;2.80;99.90
15133;DHT22;7667;51.232;17.110;2024-02-26T05:56:22;2.80;99.90
15133;DHT22;7667;51.232;17.110;2024-02-26T05:58:50;2.80;99.90
15133;DHT22;7667;51.232;17.110;2024-02-26T06:01:19;2.80;99.90
15133;DHT22;7667;51.232;17.110;2024-02-26T06:03:47;2.90;99.90
15133;DHT22;7667;51.232;17.110;2024-02-26T06:06:15;2.90;99.90
15133;DHT22;7667;51.232;17.110;2024-02-26T06:08:43;3.00;99.90
15133;DHT22;7667;51.232;17.110;2024-02-26T06:11:11;3.00;99.90
15133;DHT22;7667;51.232;17.110;2024-02-26T06:13:38;3.00;99.90
15133;DHT22;7667;51.232;17.110;2024-02-26T06:16:08;3.10;99.90
15133;DHT22;7667;51.232;17.110;2024-02-26T06:18:36;3.10;99.90
15133;DHT22;7667;51.232;17.110;2024-02-26T06:21:03;3.20;99.90
15133;DHT22;7667;51.232;17.110;2024-02-26T06:23:31;3.30;99.90
15133;DHT22;7667;51.232;17.110;2024-02-26T06:25:59;3.30;99.90
15133;DHT22;7667;51.232;17.110;2024-02-26T06:28:26;3.30;99.90
15133;DHT22;7667;51.232;17.110;2024-02-26T06:30:57;3.20;99.90
15133;DHT22;7667;51.232;17.110;2024-02-26T06:33:25;3.00;99.90
15133;DHT22;7667;51.232;17.110;2024-02-26T06:35:52;3.10;99.90
15133;DHT22;7667;51.232;17.110;2024-02-26T06:38:20;3.10;99.90
15133;DHT22;7667;51.232;17.110;2024-02-26T06:40:48;3.10;99.90
15133;DHT22;7667;51.232;17.110;2024-02-26T06:43:15;3.20;99.90
15133;DHT22;7667;51.232;17.110;2024-02-26T06:45:43;3.30;99.90
15133;DHT22;7667;51.232;17.110;2024-02-26T06:48:11;3.40;99.90
15133;DHT22;7667;51.232;17.110;2024-02-26T06:50:38;3.40;99.90
15133;DHT22;7667;51.232;17.110;2024-02-26T06:53:06;3.40;99.90
15133;DHT22;7667;51.232;17.110;2024-02-26T06:55:34;3.40;99.90
15133;DHT22;7667;51.232;17.110;2024-02-26T06:58:02;3.50;99.90
15133;DHT22;7667;51.232;17.110;2024-02-26T07:00:29;3.50;99.90
15133;DHT22;7667;51.232;17.110;2024-02-26T07:02:57;3.50;99.90
15133;DHT22;7667;51.232;17.110;2024-02-26T07:05:26;3.50;99.90
15133;DHT22;7667;51.232;17.110;2024-02-26T07:07:54;3.60;99.90
15133;DHT22;7667;51.232;17.110;2024-02-26T07:10:22;3.70;99.90
15133;DHT22;7667;51.232;17.110;2024-02-26T07:12:49;3.80;99.90
15133;DHT22;7667;51.232;17.110;2024-02-26T07:15:17;3.80;99.90
15133;DHT22;7667;51.232;17.110;2024-02-26T07:17:46;3.90;99.90
15133;DHT22;7667;51.232;17.110;2024-02-26T07:20:15;4.00;99.90
15133;DHT22;7667;51.232;17.110;2024-02-26T07:22:43;4.10;99.90
15133;DHT22;7667;51.232;17.110;2024-02-26T07:25:11;4.10;99.90
15133;DHT22;7667;51.232;17.110;2024-02-26T07:27:40;4.20;99.90
15133;DHT22;7667;51.232;17.110;2024-02-26T07:30:08;4.30;99.90
15133;DHT22;7667;51.232;17.110;2024-02-26T07:32:38;4.30;99.90
15133;DHT22;7667;51.232;17.110;2024-02-26T07:35:06;4.40;99.90
15133;DHT22;7667;51.232;17.110;2024-02-26T07:37:33;4.50;99.90
15133;DHT22;7667;51.232;17.110;2024-02-26T07:40:01;4.50;99.90
15133;DHT22;7667;51.232;17.110;2024-02-26T07:42:30;4.60;99.90
15133;DHT22;7667;51.232;17.110;2024-02-26T07:44:58;4.70;99.90
15133;DHT22;7667;51.232;17.110;2024-02-26T07:47:26;4.70;99.90
15133;DHT22;7667;51.232;17.110;2024-02-26T07:49:53;4.90;99.90
15133;DHT22;7667;51.232;17.110;2024-02-26T07:52:21;4.90;99.90
15133;DHT22;7667;51.232;17.110;2024-02-26T07:54:49;5.00;99.90
15133;DHT22;7667;51.232;17.110;2024-02-26T07:57:16;5.00;99.90
15133;DHT22;7667;51.232;17.110;2024-02-26T07:59:44;5.20;99.90
15133;DHT22;7667;51.232;17.110;2024-02-26T08:02:17;5.30;99.90
15133;DHT22;7667;51.232;17.110;2024-02-26T08:04:45;5.50;99.90
15133;DHT22;7667;51.232;17.110;2024-02-26T08:07:12;5.60;99.90
15133;DHT22;7667;51.232;17.110;2024-02-26T08:09:40;5.70;99.90
15133;DHT22;7667;51.232;17.110;2024-02-26T08:12:08;5.90;99.90
15133;DHT22;7667;51.232;17.110;2024-02-26T08:14:36;6.00;99.90
15133;DHT22;7667;51.232;17.110;2024-02-26T08:17:04;6.10;99.90
15133;DHT22;7667;51.232;17.110;2024-02-26T08:19:31;6.30;99.90
15133;DHT22;7667;51.232;17.110;2024-02-26T08:21:59;6.50;99.90
15133;DHT22;7667;51.232;17.110;2024-02-26T08:24:31;6.60;99.90
15133;DHT22;7667;51.232;17.110;2024-02-26T08:26:58;6.80;99.90
15133;DHT22;7667;51.232;17.110;2024-02-26T08:29:26;6.90;99.90
15133;DHT22;7667;51.232;17.110;2024-02-26T08:31:54;7.20;99.90
15133;DHT22;7667;51.232;17.110;2024-02-26T08:34:21;7.50;99.90
15133;DHT22;7667;51.232;17.110;2024-02-26T08:36:49;7.60;99.90
15133;DHT22;7667;51.232;17.110;2024-02-26T08:39:18;7.80;99.90
15133;DHT22;7667;51.232;17.110;2024-02-26T08:41:46;8.00;99.90
15133;DHT22;7667;51.232;17.110;2024-02-26T08:44:14;8.10;99.90
15133;DHT22;7667;51.232;17.110;2024-02-26T08:46:42;8.30;99.90
15133;DHT22;7667;51.232;17.110;2024-02-26T08:49:09;8.50;99.90
15133;DHT22;7667;51.232;17.110;2024-02-26T08:51:42;8.70;99.90
15133;DHT22;7667;51.232;17.110;2024-02-26T08:54:11;9.00;99.90
15133;DHT22;7667;51.232;17.110;2024-02-26T08:56:39;9.20;99.90
15133;DHT22;7667;51.232;17.110;2024-02-26T08:59:06;9.40;99.90
15133;DHT22;7667;51.232;17.110;2024-02-26T09:01:34;9.40;99.90
15133;DHT22;7667;51.232;17.110;2024-02-26T09:04:02;9.40;99.90
15133;DHT22;7667;51.232;17.110;2024-02-26T09:06:30;9.50;99.90
15133;DHT22;7667;51.232;17.110;2024-02-26T09:08:58;9.50;99.90
15133;DHT22;7667;51.232;17.110;2024-02-26T09:11:28;9.80;99.90
15133;DHT22;7667;51.232;17.110;2024-02-26T09:13:56;10.10;99.90
15133;DHT22;7667;51.232;17.110;2024-02-26T09:16:25;10.10;99.90
15133;DHT22;7667;51.232;17.110;2024-02-26T09:18:54;10.10;99.90
15133;DHT22;7667;51.232;17.110;2024-02-26T09:21:22;10.40;99.90
15133;DHT22;7667;51.232;17.110;2024-02-26T09:23:52;10.50;99.90
15133;DHT22;7667;51.232;17.110;2024-02-26T09:26:20;10.60;99.90
15133;DHT22;7667;51.232;17.110;2024-02-26T09:28:47;10.60;99.90
15133;DHT22;7667;51.232;17.110;2024-02-26T09:31:18;10.80;99.90
15133;DHT22;7667;51.232;17.110;2024-02-26T09:33:46;11.00;99.90
15133;DHT22;7667;51.232;17.110;2024-02-26T09:36:14;11.10;99.90
15133;DHT22;7667;51.232;17.110;2024-02-26T09:38:42;11.10;99.90
15133;DHT22;7667;51.232;17.110;2024-02-26T09:41:28;11.20;99.90
15133;DHT22;7667;51.232;17.110;2024-02-26T09:44:01;11.40;99.90
15133;DHT22;7667;51.232;17.110;2024-02-26T09:46:30;11.50;99.90
15133;DHT22;7667;51.232;17.110;2024-02-26T09:48:58;11.60;99.90
15133;DHT22;7667;51.232;17.110;2024-02-26T09:51:26;11.60;99.90
15133;DHT22;7667;51.232;17.110;2024-02-26T09:53:56;11.60;99.90
15133;DHT22;7667;51.232;17.110;2024-02-26T09:56:31;11.70;99.90
15133;DHT22;7667;51.232;17.110;2024-02-26T09:59:06;11.70;99.90
15133;DHT22;7667;51.232;17.110;2024-02-26T10:01:39;11.70;99.90
15133;DHT22;7667;51.232;17.110;2024-02-26T10:04:10;12.00;99.90
15133;DHT22;7667;51.232;17.110;2024-02-26T10:06:39;12.00;99.90
15133;DHT22;7667;51.232;17.110;2024-02-26T10:09:08;12.20;99.90
15133;DHT22;7667;51.232;17.110;2024-02-26T10:11:38;12.50;99.90
15133;DHT22;7667;51.232;17.110;2024-02-26T10:14:10;12.60;99.90
15133;DHT22;7667;51.232;17.110;2024-02-26T10:16:39;12.60;99.90
15133;DHT22;7667;51.232;17.110;2024-02-26T10:19:06;12.60;99.90
15133;DHT22;7667;51.232;17.110;2024-02-26T10:21:34;12.70;99.90
15133;DHT22;7667;51.232;17.110;2024-02-26T10:24:03;12.80;99.90
15133;DHT22;7667;51.232;17.110;2024-02-26T10:26:31;12.80;99.90
15133;DHT22;7667;51.232;17.110;2024-02-26T10:29:03;12.70;99.90
15133;DHT22;7667;51.232;17.110;2024-02-26T10:31:30;12.80;99.90
15133;DHT22;7667;51.232;17.110;2024-02-26T10:33:58;12.80;99.90
15133;DHT22;7667;51.232;17.110;2024-02-26T10:36:33;12.90;99.90
15133;DHT22;7667;51.232;17.110;2024-02-26T10:39:14;13.10;99.90
15133;DHT22;7667;51.232;17.110;2024-02-26T10:41:44;13.10;99.90
15133;DHT22;7667;51.232;17.110;2024-02-26T10:44:14;13.10;99.90
15133;DHT22;7667;51.232;17.110;2024-02-26T10:46:47;13.10;99.90
15133;DHT22;7667;51.232;17.110;2024-02-26T10:49:18;13.10;99.90
15133;DHT22;7667;51.232;17.110;2024-02-26T10:51:54;13.30;99.90
15133;DHT22;7667;51.232;17.110;2024-02-26T10:54:29;13.50;99.90
15133;DHT22;7667;51.232;17.110;2024-02-26T10:56:59;13.40;99.90
15133;DHT22;7667;51.232;17.110;2024-02-26T10:59:27;13.40;99.90
15133;DHT22;7667;51.232;17.110;2024-02-26T11:01:55;13.50;99.90
15133;DHT22;7667;51.232;17.110;2024-02-26T11:04:23;13.60;99.90
15133;DHT22;7667;51.232;17.110;2024-02-26T11:06:57;13.70;99.90
15133;DHT22;7667;51.232;17.110;2024-02-26T11:09:27;13.60;99.90
15133;DHT22;7667;51.232;17.110;2024-02-26T11:11:57;13.50;99.90
15133;DHT22;7667;51.232;17.110;2024-02-26T11:14:26;13.50;99.90
15133;DHT22;7667;51.232;17.110;2024-02-26T11:16:57;13.50;99.90
15133;DHT22;7667;51.232;17.110;2024-02-26T11:19:26;13.60;99.90
15133;DHT22;7667;51.232;17.110;2024-02-26T11:21:55;13.70;99.90
15133;DHT22;7667;51.232;17.110;2024-02-26T11:24:26;13.80;99.90
15133;DHT22;7667;51.232;17.110;2024-02-26T11:26:57;13.80;99.90
15133;DHT22;7667;51.232;17.110;2024-02-26T11:29:38;13.90;99.90
15133;DHT22;7667;51.232;17.110;2024-02-26T11:32:10;13.80;99.90
15133;DHT22;7667;51.232;17.110;2024-02-26T11:34:38;14.00;99.90
15133;DHT22;7667;51.232;17.110;2024-02-26T11:37:16;14.20;99.90
15133;DHT22;7667;51.232;17.110;2024-02-26T11:39:45;14.20;99.90
15133;DHT22;7667;51.232;17.110;2024-02-26T11:42:16;14.30;99.90
15133;DHT22;7667;51.232;17.110;2024-02-26T11:44:45;14.40;99.90
15133;DHT22;7667;51.232;17.110;2024-02-26T11:47:20;14.50;99.90
15133;DHT22;7667;51.232;17.110;2024-02-26T11:49:49;14.40;99.90
15133;DHT22;7667;51.232;17.110;2024-02-26T11:52:17;14.20;99.90
15133;DHT22;7667;51.232;17.110;2024-02-26T11:54:52;14.40;99.90
15133;DHT22;7667;51.232;17.110;2024-02-26T11:57:28;14.60;99.90
15133;DHT22;7667;51.232;17.110;2024-02-26T12:02:49;14.80;99.90
15133;DHT22;7667;51.232;17.110;2024-02-26T12:05:22;15.10;99.90
15133;DHT22;7667;51.232;17.110;2024-02-26T12:08:04;15.20;99.90
15133;DHT22;7667;51.232;17.110;2024-02-26T12:10:37;15.40;99.90
15133;DHT22;7667;51.232;17.110;2024-02-26T12:13:11;15.40;99.90
15133;DHT22;7667;51.232;17.110;2024-02-26T12:15:56;15.30;99.90
15133;DHT22;7667;51.232;17.110;2024-02-26T12:18:25;15.20;99.90
15133;DHT22;7667;51.232;17.110;2024-02-26T12:21:00;15.20;99.90
15133;DHT22;7667;51.232;17.110;2024-02-26T12:23:29;15.00;99.90
15133;DHT22;7667;51.232;17.110;2024-02-26T12:26:01;14.90;99.90
15133;DHT22;7667;51.232;17.110;2024-02-26T12:28:34;15.10;99.90
15133;DHT22;7667;51.232;17.110;2024-02-26T12:31:02;14.80;99.90
15133;DHT22;7667;51.232;17.110;2024-02-26T12:33:30;14.70;99.90
15133;DHT22;7667;51.232;17.110;2024-02-26T12:35:58;15.00;99.90
15133;DHT22;7667;51.232;17.110;2024-02-26T12:38:27;15.20;99.90
15133;DHT22;7667;51.232;17.110;2024-02-26T12:40:54;15.30;99.90
15133;DHT22;7667;51.232;17.110;2024-02-26T12:43:22;15.20;99.90
15133;DHT22;7667;51.232;17.110;2024-02-26T12:45:50;15.10;99.90
15133;DHT22;7667;51.232;17.110;2024-02-26T12:48:18;15.20;99.90
15133;DHT22;7667;51.232;17.110;2024-02-26T12:50:48;15.50;99.90
15133;DHT22;7667;51.232;17.110;2024-02-26T12:53:16;15.40;99.90
15133;DHT22;7667;51.232;17.110;2024-02-26T12:55:43;15.10;99.90
15133;DHT22;7667;51.232;17.110;2024-02-26T12:58:12;14.90;99.90
15133;DHT22;7667;51.232;17.110;2024-02-26T13:00:40;14.50;99.90
15133;DHT22;7667;51.232;17.110;2024-02-26T13:03:09;14.40;99.90
15133;DHT22;7667;51.232;17.110;2024-02-26T13:05:37;14.50;99.90
15133;DHT22;7667;51.232;17.110;2024-02-26T13:08:05;14.70;99.90
15133;DHT22;7667;51.232;17.110;2024-02-26T13:10:37;14.90;99.90
15133;DHT22;7667;51.232;17.110;2024-02-26T13:13:04;14.60;99.90
15133;DHT22;7667;51.232;17.110;2024-02-26T13:15:32;14.30;99.90
15133;DHT22;7667;51.232;17.110;2024-02-26T13:18:12;14.30;99.90
15133;DHT22;7667;51.232;17.110;2024-02-26T13:20:42;14.30;99.90
15133;DHT22;7667;51.232;17.110;2024-02-26T13:23:13;14.50;99.90
15133;DHT22;7667;51.232;17.110;2024-02-26T13:25:41;14.70;99.90
15133;DHT22;7667;51.232;17.110;2024-02-26T13:30:54;14.80;99.90
15133;DHT22;7667;51.232;17.110;2024-02-26T13:33:26;14.40;99.90
15133;DHT22;7667;51.232;17.110;2024-02-26T13:35:56;14.10;99.90
15133;DHT22;7667;51.232;17.110;2024-02-26T13:38:25;14.00;99.90
15133;DHT22;7667;51.232;17.110;2024-02-26T13:40:54;13.90;99.90
15133;DHT22;7667;51.232;17.110;2024-02-26T13:43:22;13.80;99.90
15133;DHT22;7667;51.232;17.110;2024-02-26T13:45:50;13.60;99.90
15133;DHT22;7667;51.232;17.110;2024-02-26T13:48:18;13.60;99.90
15133;DHT22;7667;51.232;17.110;2024-02-26T13:50:46;13.60;99.90
15133;DHT22;7667;51.232;17.110;2024-02-26T13:53:14;13.60;99.90
15133;DHT22;7667;51.232;17.110;2024-02-26T13:55:42;13.70;99.90
15133;DHT22;7667;51.232;17.110;2024-02-26T13:58:14;13.70;99.90
15133;DHT22;7667;51.232;17.110;2024-02-26T14:00:42;13.80;99.90
15133;DHT22;7667;51.232;17.110;2024-02-26T14:03:11;13.90;99.90
15133;DHT22;7667;51.232;17.110;2024-02-26T14:05:39;14.00;99.90
15133;DHT22;7667;51.232;17.110;2024-02-26T14:08:11;14.10;99.90
15133;DHT22;7667;51.232;17.110;2024-02-26T14:10:39;14.20;99.90
15133;DHT22;7667;51.232;17.110;2024-02-26T14:13:06;13.80;99.90
15133;DHT22;7667;51.232;17.110;2024-02-26T14:15:34;13.40;99.90
15133;DHT22;7667;51.232;17.110;2024-02-26T14:18:03;13.20;99.90
15133;DHT22;7667;51.232;17.110;2024-02-26T14:20:31;13.10;99.90
15133;DHT22;7667;51.232;17.110;2024-02-26T14:22:59;12.90;99.90
15133;DHT22;7667;51.232;17.110;2024-02-26T14:25:27;12.90;99.90
15133;DHT22;7667;51.232;17.110;2024-02-26T14:27:57;12.90;99.90
15133;DHT22;7667;51.232;17.110;2024-02-26T14:30:26;12.90;99.90
15133;DHT22;7667;51.232;17.110;2024-02-26T14:32:54;12.80;99.90
15133;DHT22;7667;51.232;17.110;2024-02-26T14:35:23;12.70;99.90
15133;DHT22;7667;51.232;17.110;2024-02-26T14:37:51;12.70;99.90
15133;DHT22;7667;51.232;17.110;2024-02-26T14:40:19;12.60;99.90
15133;DHT22;7667;51.232;17.110;2024-02-26T14:42:47;12.60;99.90
15133;DHT22;7667;51.232;17.110;2024-02-26T14:45:15;12.60;99.90
15133;DHT22;7667;51.232;17.110;2024-02-26T14:47:44;12.60;99.90
15133;DHT22;7667;51.232;17.110;2024-02-26T14:50:12;12.50;99.90
15133;DHT22;7667;51.232;17.110;2024-02-26T14:52:39;12.40;99.90
15133;DHT22;7667;51.232;17.110;2024-02-26T14:55:07;12.40;99.90
15133;DHT22;7667;51.232;17.110;2024-02-26T14:57:35;12.40;99.90
15133;DHT22;7667;51.232;17.110;2024-02-26T15:00:04;12.30;99.90
15133;DHT22;7667;51.232;17.110;2024-02-26T15:02:34;12.20;99.90
15133;DHT22;7667;51.232;17.110;2024-02-26T15:05:02;12.10;99.90
15133;DHT22;7667;51.232;17.110;2024-02-26T15:07:30;12.10;99.90
15133;DHT22;7667;51.232;17.110;2024-02-26T15:09:58;12.00;99.90
15133;DHT22;7667;51.232;17.110;2024-02-26T15:12:27;12.00;99.90
15133;DHT22;7667;51.232;17.110;2024-02-26T15:14:55;12.00;99.90
15133;DHT22;7667;51.232;17.110;2024-02-26T15:17:24;12.00;99.90
15133;DHT22;7667;51.232;17.110;2024-02-26T15:19:52;12.00;99.90
15133;DHT22;7667;51.232;17.110;2024-02-26T15:22:20;12.10;99.90
15133;DHT22;7667;51.232;17.110;2024-02-26T15:24:48;12.10;99.90
15133;DHT22;7667;51.232;17.110;2024-02-26T15:27:15;12.10;99.90
15133;DHT22;7667;51.232;17.110;2024-02-26T15:29:44;12.00;99.90
15133;DHT22;7667;51.232;17.110;2024-02-26T15:32:11;11.90;99.90
15133;DHT22;7667;51.232;17.110;2024-02-26T15:34:39;12.00;99.90
15133;DHT22;7667;51.232;17.110;2024-02-26T15:37:07;12.00;99.90
15133;DHT22;7667;51.232;17.110;2024-02-26T15:39:38;12.10;99.90
15133;DHT22;7667;51.232;17.110;2024-02-26T15:42:05;12.10;99.90
15133;DHT22;7667;51.232;17.110;2024-02-26T15:44:33;12.10;99.90
15133;DHT22;7667;51.232;17.110;2024-02-26T15:47:00;12.10;99.90
15133;DHT22;7667;51.232;17.110;2024-02-26T15:49:28;12.10;99.90
15133;DHT22;7667;51.232;17.110;2024-02-26T15:51:56;12.10;99.90
15133;DHT22;7667;51.232;17.110;2024-02-26T15:54:25;12.00;99.90